Time;durP1;ratioP1;P1;durP2;ratioP2;P2;SDS_P1;SDS_P2;PMS_P1;PMS_P2;Temp;Humidity;BMP_temperature;BMP_pressure;BME280_temperature;BME280_humidity;BME280_pressure;Samples;Min_cycle;Max_cycle;Signal;HPM_P1;HPM_P2
2022/09/10 00:01:58;;;;;;;;;;;;;;;27.80;45.95;98808.38;4481152;32;35295;-83
2022/09/10 00:04:26;;;;;;;;;;;;;;;27.23;46.87;98812.84;4484053;32;34295;-83
2022/09/10 00:06:54;;;;;;;;;;;;;;;27.65;45.79;98807.56;4482145;31;33244;-95
2022/09/10 00:09:21;;;;;;;;;;;;;;;27.79;45.55;98811.16;4483830;32;33844;-83
2022/09/10 00:11:49;;;;;;;;;;;;;;;27.63;45.72;98808.59;4474202;32;34267;-82
2022/09/10 00:14:19;;;;;;;;;;;;;;;27.83;45.00;98802.03;4481625;32;33982;-82
2022/09/10 00:16:47;;;;;;;;;;;;;;;27.80;44.91;98802.22;4464977;32;33346;-82
2022/09/10 00:19:14;;;;;;;;;;;;;;;27.87;44.29;98806.19;4477826;31;34296;-82
2022/09/10 00:21:43;;;;;;;;;;;;;;;27.70;44.42;98801.06;4483023;31;36015;-82
2022/09/10 00:24:10;;;;;;;;;;;;;;;27.78;43.93;98794.31;4469944;32;33908;-82
2022/09/10 00:26:39;;;;;;;;;;;;;;;27.56;43.61;98793.94;4452722;32;33528;-82
2022/09/10 00:29:07;;;;;;;;;;;;;;;27.55;43.28;98794.91;4467495;32;34219;-82
2022/09/10 00:31:34;;;;;;;;;;;;;;;27.71;42.97;98792.97;4468056;32;34386;-82
2022/09/10 00:34:03;;;;;;;;;;;;;;;27.28;43.85;98785.03;4467872;32;34270;-83
2022/09/10 00:36:34;;;;;;;;;;;;;;;27.29;43.86;98780.56;4477137;32;33578;-83
2022/09/10 00:39:04;;;;;;;;;;;;;;;27.38;43.69;98772.81;4480300;32;34248;-82
2022/09/10 00:41:32;;;;;;;;;;;;;;;27.54;43.39;98780.75;4454050;32;34240;-83
2022/09/10 00:44:25;;;;;;;;;;;;;;;27.62;43.32;98782.91;4453653;32;34934;-82
2022/09/10 00:46:52;;;;;;;;;;;;;;;27.28;43.98;98779.69;4438688;32;33387;-82
2022/09/10 00:49:25;;;;;;;;;;;;;;;27.27;44.18;98785.09;4467934;32;34303;-82
2022/09/10 00:51:53;;;;;;;;;;;;;;;27.12;44.54;98787.78;4467960;32;34000;-82
2022/09/10 00:54:21;;;;;;;;;;;;;;;27.39;44.05;98779.03;4453927;32;34935;-82
2022/09/10 00:56:48;;;;;;;;;;;;;;;27.37;44.26;98778.25;4463816;32;34137;-82
2022/09/10 00:59:16;;;;;;;;;;;;;;;27.24;44.42;98772.84;4482953;32;33987;-84
2022/09/10 01:01:44;;;;;;;;;;;;;;;27.47;44.10;98778.56;4483631;32;35128;-84
2022/09/10 01:04:11;;;;;;;;;;;;;;;27.50;44.05;98773.87;4478877;32;34047;-82
2022/09/10 01:06:40;;;;;;;;;;;;;;;27.60;43.63;98769.69;4468035;32;33120;-82
2022/09/10 01:09:07;;;;;;;;;;;;;;;27.45;43.86;98765.31;4454583;32;33504;-82
2022/09/10 01:11:53;;;;;;;;;;;;;;;27.10;43.96;98768.34;4454360;32;33969;-82
2022/09/10 01:14:27;;;;;;;;;;;;;;;26.96;43.85;98768.31;4467816;32;34025;-83
2022/09/10 01:16:54;;;;;;;;;;;;;;;26.12;45.76;98763.47;4470872;32;34177;-82
2022/09/10 01:19:40;;;;;;;;;;;;;;;26.50;45.02;98770.22;4481283;32;34180;-94
2022/09/10 01:22:09;;;;;;;;;;;;;;;26.62;44.66;98767.66;4483080;32;34262;-82
2022/09/10 01:24:50;;;;;;;;;;;;;;;26.90;44.21;98758.06;4483332;31;35338;-82
2022/09/10 01:27:18;;;;;;;;;;;;;;;26.88;44.16;98759.94;4462389;32;33671;-82
2022/09/10 01:29:48;;;;;;;;;;;;;;;26.55;44.39;98746.84;4476301;32;35061;-82
2022/09/10 01:32:35;;;;;;;;;;;;;;;26.50;44.82;98733.00;4469353;32;35287;-82
2022/09/10 01:35:13;;;;;;;;;;;;;;;26.17;45.40;98728.66;4472847;32;34122;-86
2022/09/10 01:37:46;;;;;;;;;;;;;;;26.52;44.56;98726.66;4460779;32;33513;-82
2022/09/10 01:40:14;;;;;;;;;;;;;;;25.92;45.86;98718.63;4464293;32;34241;-82
2022/09/10 01:42:41;;;;;;;;;;;;;;;26.27;44.80;98724.53;4467983;31;34424;-82
2022/09/10 01:45:10;;;;;;;;;;;;;;;26.08;45.60;98727.41;4481168;32;34976;-81
2022/09/10 01:47:38;;;;;;;;;;;;;;;26.02;45.67;98708.31;4463179;32;33505;-91
2022/09/10 01:50:05;;;;;;;;;;;;;;;25.96;45.64;98710.38;4478702;32;34315;-82
2022/09/10 01:52:38;;;;;;;;;;;;;;;26.13;45.47;98724.47;4483345;32;34302;-82
2022/09/10 01:55:12;;;;;;;;;;;;;;;26.37;44.85;98736.34;4482717;32;34080;-84
2022/09/10 01:57:41;;;;;;;;;;;;;;;26.04;45.23;98723.22;4482236;32;33158;-82
2022/09/10 02:00:12;;;;;;;;;;;;;;;25.84;45.92;98705.78;4471547;32;34074;-82
2022/09/10 02:02:58;;;;;;;;;;;;;;;25.69;46.07;98693.34;4453283;32;34161;-82
2022/09/10 02:05:27;;;;;;;;;;;;;;;25.72;46.07;98694.03;4467296;32;34354;-83
2022/09/10 02:07:59;;;;;;;;;;;;;;;25.75;45.41;98690.31;4458090;32;34197;-82
2022/09/10 02:10:27;;;;;;;;;;;;;;;25.83;45.97;98697.87;4468713;32;34214;-82
2022/09/10 02:12:54;;;;;;;;;;;;;;;25.15;47.59;98693.62;4468904;32;34215;-82
2022/09/10 02:15:23;;;;;;;;;;;;;;;25.03;48.00;98696.06;4468117;32;34322;-82
2022/09/10 02:17:52;;;;;;;;;;;;;;;25.17;46.60;98704.19;4463662;32;33361;-82
2022/09/10 02:20:20;;;;;;;;;;;;;;;24.39;48.23;98703.78;4467146;32;34152;-82
2022/09/10 02:22:54;;;;;;;;;;;;;;;24.56;48.26;98710.91;4453648;32;34811;-82
2022/09/10 02:25:22;;;;;;;;;;;;;;;23.32;50.94;98714.25;4454725;32;33699;-82
2022/09/10 02:27:55;;;;;;;;;;;;;;;23.28;50.92;98702.94;4482320;32;33317;-82
2022/09/10 02:30:23;;;;;;;;;;;;;;;23.38;50.36;98707.84;4468475;32;34366;-82
2022/09/10 02:32:51;;;;;;;;;;;;;;;23.49;50.84;98697.59;4482944;32;35191;-82
2022/09/10 02:35:19;;;;;;;;;;;;;;;23.57;50.86;98692.81;4480268;32;34293;-82
2022/09/10 02:37:49;;;;;;;;;;;;;;;23.28;51.71;98697.66;4467100;32;33319;-82
2022/09/10 02:40:19;;;;;;;;;;;;;;;22.80;53.53;98696.28;4466959;32;34619;-83
2022/09/10 02:42:47;;;;;;;;;;;;;;;22.97;52.86;98690.28;4467300;32;34550;-82
2022/09/10 02:45:15;;;;;;;;;;;;;;;23.08;52.17;98692.44;4453830;32;34127;-82
2022/09/10 02:47:43;;;;;;;;;;;;;;;23.13;51.81;98694.88;4481749;32;34167;-81
2022/09/10 02:50:10;;;;;;;;;;;;;;;23.30;50.80;98685.25;4482367;32;34916;-81
2022/09/10 02:52:37;;;;;;;;;;;;;;;23.89;48.91;98685.13;4483176;32;34402;-88
2022/09/10 02:55:05;;;;;;;;;;;;;;;22.89;51.33;98691.53;4473663;32;33961;-83
2022/09/10 02:57:32;;;;;;;;;;;;;;;23.18;50.86;98704.28;4468478;32;35868;-82
2022/09/10 03:00:00;;;;;;;;;;;;;;;23.34;49.82;98685.09;4468950;32;34089;-82
2022/09/10 03:02:28;;;;;;;;;;;;;;;22.86;50.64;98700.44;4468868;32;34545;-82
2022/09/10 03:04:55;;;;;;;;;;;;;;;22.46;51.94;98703.97;4480807;32;35214;-82
2022/09/10 03:07:23;;;;;;;;;;;;;;;23.39;49.26;98698.97;4483739;32;33368;-82
2022/09/10 03:09:51;;;;;;;;;;;;;;;22.20;51.83;98700.66;4484265;32;34949;-96
2022/09/10 03:12:20;;;;;;;;;;;;;;;22.31;52.39;98692.28;4483409;32;35022;-82
2022/09/10 03:14:48;;;;;;;;;;;;;;;22.80;50.97;98696.28;4470842;32;33914;-82
2022/09/10 03:17:16;;;;;;;;;;;;;;;22.57;51.51;98678.78;4468750;32;33576;-82
2022/09/10 03:19:43;;;;;;;;;;;;;;;23.30;49.36;98690.53;4468441;32;34282;-82
2022/09/10 03:22:10;;;;;;;;;;;;;;;23.61;48.35;98699.66;4468707;32;35220;-82
2022/09/10 03:24:37;;;;;;;;;;;;;;;23.28;49.12;98689.72;4480274;32;34144;-82
2022/09/10 03:27:05;;;;;;;;;;;;;;;23.55;48.38;98690.22;4471765;32;33389;-82
2022/09/10 03:29:32;;;;;;;;;;;;;;;24.20;46.65;98687.94;4468505;32;35078;-82
2022/09/10 03:32:00;;;;;;;;;;;;;;;23.34;48.84;98685.09;4474979;32;34519;-86
2022/09/10 03:34:27;;;;;;;;;;;;;;;23.43;47.97;98684.66;4473232;32;34221;-82
2022/09/10 03:36:54;;;;;;;;;;;;;;;23.49;48.88;98685.22;4468651;32;32768;-82
2022/09/10 03:39:22;;;;;;;;;;;;;;;23.40;48.93;98675.06;4468573;32;34632;-82
2022/09/10 03:41:50;;;;;;;;;;;;;;;22.93;49.39;98679.94;4468466;32;35327;-82
2022/09/10 03:44:19;;;;;;;;;;;;;;;22.44;50.16;98690.84;4476970;32;34292;-82
2022/09/10 03:46:48;;;;;;;;;;;;;;;22.85;49.64;98679.38;4483766;31;34092;-93
2022/09/10 03:49:16;;;;;;;;;;;;;;;22.72;49.94;98682.56;4484251;32;33797;-84
2022/09/10 03:51:43;;;;;;;;;;;;;;;23.38;48.28;98687.53;4483274;32;33911;-82
2022/09/10 03:54:12;;;;;;;;;;;;;;;22.50;50.47;98687.06;4476028;32;34970;-82
2022/09/10 03:56:40;;;;;;;;;;;;;;;22.89;49.28;98688.88;4476016;31;34650;-82
2022/09/10 03:59:07;;;;;;;;;;;;;;;22.62;49.84;98683.91;4474940;32;33212;-82
2022/09/10 04:01:35;;;;;;;;;;;;;;;21.90;51.62;98683.44;4468365;32;34928;-82
2022/09/10 04:04:04;;;;;;;;;;;;;;;21.72;52.35;98685.88;4473734;32;34891;-83
2022/09/10 04:06:32;;;;;;;;;;;;;;;22.62;49.81;98685.69;4483347;32;33429;-84
2022/09/10 04:09:00;;;;;;;;;;;;;;;22.92;49.26;98684.34;4483730;32;33762;-82
2022/09/10 04:11:27;;;;;;;;;;;;;;;23.23;48.21;98678.50;4468851;32;34397;-81
2022/09/10 04:13:55;;;;;;;;;;;;;;;22.97;49.17;98682.34;4468301;32;34201;-82
2022/09/10 04:16:22;;;;;;;;;;;;;;;23.30;48.26;98682.59;4474412;32;33487;-82
2022/09/10 04:18:50;;;;;;;;;;;;;;;23.03;48.26;98694.41;4467872;32;34368;-81
2022/09/10 04:21:17;;;;;;;;;;;;;;;23.05;48.71;98687.28;4467915;32;34360;-82
2022/09/10 04:23:46;;;;;;;;;;;;;;;23.31;47.53;98689.59;4468080;32;33962;-92
2022/09/10 04:26:14;;;;;;;;;;;;;;;23.11;48.36;98700.25;4467909;32;34209;-82
2022/09/10 04:28:42;;;;;;;;;;;;;;;22.71;48.49;98703.78;4468032;32;35128;-82
2022/09/10 04:31:09;;;;;;;;;;;;;;;22.63;48.62;98698.81;4468405;32;34432;-82
2022/09/10 04:33:37;;;;;;;;;;;;;;;22.78;47.96;98697.28;4467557;32;34012;-81
2022/09/10 04:36:05;;;;;;;;;;;;;;;22.35;49.40;98709.72;4467750;32;33828;-88
2022/09/10 04:38:38;;;;;;;;;;;;;;;22.67;48.97;98710.97;4467894;32;34885;-81
2022/09/10 04:41:06;;;;;;;;;;;;;;;22.13;49.78;98696.53;4468315;32;33932;-82
2022/09/10 04:43:34;;;;;;;;;;;;;;;21.92;50.28;98690.34;4467746;32;35812;-82
2022/09/10 04:46:01;;;;;;;;;;;;;;;22.23;49.56;98695.25;4467856;32;33270;-82
2022/09/10 04:48:30;;;;;;;;;;;;;;;22.40;48.97;98696.31;4453820;32;34327;-82
2022/09/10 04:50:58;;;;;;;;;;;;;;;21.79;50.66;98699.69;4467840;32;34349;-82
2022/09/10 04:53:43;;;;;;;;;;;;;;;22.17;49.66;98695.50;4455520;32;35020;-82
2022/09/10 04:56:11;;;;;;;;;;;;;;;21.50;51.62;98687.66;4467715;32;33455;-82
2022/09/10 04:58:39;;;;;;;;;;;;;;;21.71;51.04;98692.09;4467462;32;33322;-92
2022/09/10 05:01:07;;;;;;;;;;;;;;;21.07;53.03;98692.78;4467648;32;34342;-91
2022/09/10 05:03:34;;;;;;;;;;;;;;;21.98;50.58;98695.38;4467174;32;34816;-82
2022/09/10 05:06:02;;;;;;;;;;;;;;;21.66;51.32;98693.19;4467738;32;33120;-81
2022/09/10 05:08:30;;;;;;;;;;;;;;;21.62;52.16;98692.44;4467866;32;34333;-81
2022/09/10 05:10:59;;;;;;;;;;;;;;;22.06;50.47;98698.56;4466858;32;35317;-81
2022/09/10 05:13:27;;;;;;;;;;;;;;;21.48;52.03;98689.47;4476776;32;33024;-81
2022/09/10 05:15:56;;;;;;;;;;;;;;;22.18;50.09;98691.09;4461555;32;33488;-82
2022/09/10 05:18:25;;;;;;;;;;;;;;;21.78;51.30;98700.59;4483319;32;34197;-82
2022/09/10 05:20:52;;;;;;;;;;;;;;;21.54;52.50;98699.81;4483393;32;34835;-82
2022/09/10 05:23:19;;;;;;;;;;;;;;;22.10;50.90;98705.44;4458729;32;34061;-90
2022/09/10 05:25:47;;;;;;;;;;;;;;;22.34;50.58;98708.84;4472371;32;33379;-82
2022/09/10 05:28:15;;;;;;;;;;;;;;;22.64;49.61;98712.87;4482879;32;35097;-89
2022/09/10 05:30:46;;;;;;;;;;;;;;;22.06;51.47;98711.75;4482684;32;34041;-82
2022/09/10 05:33:18;;;;;;;;;;;;;;;23.00;48.43;98699.88;4483757;32;34921;-83
2022/09/10 05:35:52;;;;;;;;;;;;;;;22.92;48.48;98709.91;4479946;32;33561;-82
2022/09/10 05:38:20;;;;;;;;;;;;;;;22.88;48.70;98711.81;4454421;32;35047;-82
2022/09/10 05:40:47;;;;;;;;;;;;;;;22.16;50.94;98720.22;4467699;32;34294;-91
2022/09/10 05:43:15;;;;;;;;;;;;;;;22.69;49.60;98714.41;4474453;32;35121;-82
2022/09/10 05:45:42;;;;;;;;;;;;;;;21.78;51.87;98733.16;4479872;32;33177;-82
2022/09/10 05:48:10;;;;;;;;;;;;;;;22.19;50.48;98725.34;4467399;32;34384;-82
2022/09/10 05:50:37;;;;;;;;;;;;;;;22.52;49.36;98728.34;4469910;31;35102;-90
2022/09/10 05:53:05;;;;;;;;;;;;;;;22.87;48.71;98730.38;4465984;32;34226;-81
2022/09/10 05:55:32;;;;;;;;;;;;;;;23.23;47.88;98719.97;4467127;32;34190;-91
2022/09/10 05:58:01;;;;;;;;;;;;;;;22.22;50.59;98722.56;4467579;32;33739;-82
2022/09/10 06:00:29;;;;;;;;;;;;;;;22.92;49.35;98721.37;4466525;32;34437;-82
2022/09/10 06:02:56;;;;;;;;;;;;;;;22.07;51.39;98715.25;4467133;32;33507;-81
2022/09/10 06:05:24;;;;;;;;;;;;;;;22.99;48.81;98719.28;4467212;32;33444;-81
2022/09/10 06:07:52;;;;;;;;;;;;;;;22.47;50.27;98719.78;4467063;32;33560;-82
2022/09/10 06:10:19;;;;;;;;;;;;;;;22.48;49.92;98716.19;4466893;32;34843;-81
2022/09/10 06:12:48;;;;;;;;;;;;;;;22.55;49.84;98716.78;4467422;32;35057;-82
2022/09/10 06:15:15;;;;;;;;;;;;;;;22.34;50.90;98713.28;4467493;32;34083;-83
2022/09/10 06:17:43;;;;;;;;;;;;;;;21.85;52.14;98710.84;4466601;32;34439;-81
2022/09/10 06:20:12;;;;;;;;;;;;;;;22.56;50.22;98713.22;4467211;32;35425;-81
2022/09/10 06:22:40;;;;;;;;;;;;;;;22.17;51.80;98716.62;4467189;32;34829;-81
2022/09/10 06:25:08;;;;;;;;;;;;;;;22.86;49.26;98708.38;4473098;32;33655;-82
2022/09/10 06:27:35;;;;;;;;;;;;;;;22.38;51.43;98708.72;4480249;32;34240;-82
2022/09/10 06:30:03;;;;;;;;;;;;;;;23.00;49.48;98710.44;4484685;31;33601;-94
2022/09/10 06:32:33;;;;;;;;;;;;;;;22.81;50.59;98711.22;4468581;32;34799;-82
2022/09/10 06:35:01;;;;;;;;;;;;;;;22.85;49.98;98714.59;4468848;32;33340;-82
2022/09/10 06:37:33;;;;;;;;;;;;;;;22.89;49.17;98712.69;4467682;32;34934;-86
2022/09/10 06:40:01;;;;;;;;;;;;;;;22.07;51.25;98715.25;4468986;32;34425;-92
2022/09/10 06:42:28;;;;;;;;;;;;;;;21.80;52.20;98720.72;4468871;32;34863;-84
2022/09/10 06:44:56;;;;;;;;;;;;;;;21.29;52.69;98713.91;4468566;32;32580;-82
2022/09/10 06:47:24;;;;;;;;;;;;;;;22.42;49.98;98710.31;4468326;32;35038;-85
2022/09/10 06:50:11;;;;;;;;;;;;;;;22.19;50.61;98720.06;4468580;32;35607;-82
2022/09/10 06:52:38;;;;;;;;;;;;;;;21.98;51.76;98723.56;4468846;32;34207;-82
2022/09/10 06:55:07;;;;;;;;;;;;;;;21.98;52.01;98721.78;4469450;32;33520;-93
2022/09/10 06:57:34;;;;;;;;;;;;;;;22.64;50.29;98731.38;4468937;32;34302;-82
2022/09/10 07:00:03;;;;;;;;;;;;;;;22.73;49.81;98733.63;4469419;32;33859;-90
2022/09/10 07:02:30;;;;;;;;;;;;;;;22.95;50.11;98730.94;4468869;32;34977;-94
2022/09/10 07:04:58;;;;;;;;;;;;;;;22.46;51.74;98733.03;4469163;32;33437;-82
2022/09/10 07:07:27;;;;;;;;;;;;;;;23.09;50.94;98733.81;4468145;32;34348;-84
2022/09/10 07:09:54;;;;;;;;;;;;;;;22.17;53.70;98736.91;4468736;32;34142;-82
2022/09/10 07:12:22;;;;;;;;;;;;;;;22.80;51.37;98754.41;4467852;32;35043;-82
2022/09/10 07:14:49;;;;;;;;;;;;;;;21.83;54.29;98752.28;4468227;32;34262;-82
2022/09/10 07:17:19;;;;;;;;;;;;;;;22.06;54.00;98758.44;4468831;32;34100;-82
2022/09/10 07:19:47;;;;;;;;;;;;;;;21.77;54.57;98764.84;4470270;32;34511;-82
2022/09/10 07:22:16;;;;;;;;;;;;;;;22.52;53.31;98772.41;4468893;32;33693;-82
2022/09/10 07:24:44;;;;;;;;;;;;;;;21.50;55.35;98770.28;4473005;32;33408;-82
2022/09/10 07:27:13;;;;;;;;;;;;;;;22.57;53.56;98763.34;4484630;32;33751;-81
2022/09/10 07:29:41;;;;;;;;;;;;;;;23.16;51.85;98766.13;4474127;32;34307;-81
2022/09/10 07:32:09;;;;;;;;;;;;;;;23.21;51.86;98762.34;4482966;32;34373;-81
2022/09/10 07:34:40;;;;;;;;;;;;;;;23.28;51.07;98766.44;4484260;32;33962;-81
2022/09/10 07:37:07;;;;;;;;;;;;;;;23.44;51.48;98774.53;4483709;31;34425;-89
2022/09/10 07:39:34;;;;;;;;;;;;;;;23.95;50.48;98773.06;4472129;32;35302;-95
2022/09/10 07:42:02;;;;;;;;;;;;;;;24.20;49.24;98780.63;4468807;32;35548;-93
2022/09/10 07:44:31;;;;;;;;;;;;;;;24.40;49.62;98786.81;4468660;32;34325;-85
2022/09/10 07:47:00;;;;;;;;;;;;;;;24.89;47.01;98784.28;4454639;32;32320;-82
2022/09/10 07:49:27;;;;;;;;;;;;;;;23.81;50.19;98779.94;4477583;32;34499;-82
2022/09/10 07:51:55;;;;;;;;;;;;;;;23.50;50.86;98786.63;4483486;32;34310;-82
2022/09/10 07:54:27;;;;;;;;;;;;;;;24.01;50.29;98791.28;4484275;32;34005;-90
2022/09/10 07:56:56;;;;;;;;;;;;;;;24.22;50.44;98789.37;4471694;32;34194;-82
2022/09/10 07:59:23;;;;;;;;;;;;;;;24.02;50.91;98794.81;4468444;32;35249;-82
2022/09/10 08:01:51;;;;;;;;;;;;;;;24.22;50.24;98792.03;4471439;32;34388;-82
2022/09/10 08:04:19;;;;;;;;;;;;;;;24.91;47.69;98787.75;4482471;32;34387;-82
2022/09/10 08:06:46;;;;;;;;;;;;;;;23.70;51.05;98780.44;4473859;32;33941;-82
2022/09/10 08:09:15;;;;;;;;;;;;;;;24.30;49.97;98785.50;4469074;32;34392;-81
2022/09/10 08:11:43;;;;;;;;;;;;;;;24.09;51.30;98793.53;4468582;32;34773;-81
2022/09/10 08:14:12;;;;;;;;;;;;;;;23.90;50.87;98790.06;4469953;32;33239;-80
2022/09/10 08:16:39;;;;;;;;;;;;;;;24.22;50.83;98794.69;4468024;32;32830;-81
2022/09/10 08:19:13;;;;;;;;;;;;;;;24.46;50.42;98795.28;4469665;32;33964;-82
2022/09/10 08:21:40;;;;;;;;;;;;;;;23.67;50.74;98802.59;4480298;32;32694;-83
2022/09/10 08:24:09;;;;;;;;;;;;;;;24.48;49.76;98800.53;4468202;32;33056;-81
2022/09/10 08:26:37;;;;;;;;;;;;;;;24.03;50.94;98802.66;4468111;32;34956;-81
2022/09/10 08:29:04;;;;;;;;;;;;;;;24.32;49.88;98794.22;4467715;32;34444;-87
2022/09/10 08:31:31;;;;;;;;;;;;;;;23.85;50.96;98786.78;4479051;32;33840;-81
2022/09/10 08:34:00;;;;;;;;;;;;;;;23.77;50.15;98793.31;4483333;32;33511;-81
2022/09/10 08:36:27;;;;;;;;;;;;;;;23.81;49.83;98785.22;4483787;32;34754;-81
2022/09/10 08:38:54;;;;;;;;;;;;;;;23.53;51.73;98802.38;4482929;32;35213;-91
2022/09/10 08:41:37;;;;;;;;;;;;;;;23.07;51.41;98799.16;4478873;32;34891;-90
2022/09/10 08:44:08;;;;;;;;;;;;;;;23.92;49.64;98793.53;4468008;32;33963;-85
2022/09/10 08:46:44;;;;;;;;;;;;;;;23.70;49.56;98797.16;4473321;32;34525;-82
2022/09/10 08:49:50;;;;;;;;;;;;;;;23.35;50.26;98795.25;4453541;32;33419;-83
2022/09/10 08:52:28;;;;;;;;;;;;;;;23.47;49.35;98789.41;4427554;32;34301;-84
2022/09/10 08:55:00;;;;;;;;;;;;;;;23.81;47.95;98794.03;4433945;32;33628;-85
2022/09/10 08:57:32;;;;;;;;;;;;;;;24.07;48.33;98802.53;4439742;32;33662;-84
2022/09/10 08:59:59;;;;;;;;;;;;;;;24.25;47.40;98794.53;4453930;32;34794;-85
2022/09/10 09:02:33;;;;;;;;;;;;;;;23.97;48.46;98797.66;4478873;31;34067;-84
2022/09/10 09:05:17;;;;;;;;;;;;;;;22.75;50.26;98798.69;4471467;32;33378;-83
2022/09/10 09:07:45;;;;;;;;;;;;;;;23.65;47.87;98804.44;4468944;32;34096;-88
2022/09/10 09:10:18;;;;;;;;;;;;;;;23.48;48.59;98814.91;4468843;32;33923;-83
2022/09/10 09:12:51;;;;;;;;;;;;;;;23.16;50.19;98809.31;4471198;32;34262;-87
2022/09/10 09:15:28;;;;;;;;;;;;;;;24.05;47.97;98805.22;4463833;32;32790;-88
2022/09/10 09:18:05;;;;;;;;;;;;;;;23.38;49.20;98808.34;4467801;32;34375;-90
2022/09/10 09:20:32;;;;;;;;;;;;;;;24.11;47.51;98804.09;4475748;32;34367;-85
2022/09/10 09:23:13;;;;;;;;;;;;;;;24.36;45.63;98803.72;4483645;32;34194;-84
2022/09/10 09:25:43;;;;;;;;;;;;;;;24.05;47.50;98807.88;4469197;32;33020;-89
2022/09/10 09:28:14;;;;;;;;;;;;;;;24.49;44.71;98804.87;4482466;32;33822;-85
2022/09/10 09:30:47;;;;;;;;;;;;;;;23.90;46.80;98805.97;4483577;32;34931;-85
2022/09/10 09:33:17;;;;;;;;;;;;;;;24.54;46.13;98810.81;4468509;32;34004;-83
2022/09/10 09:35:46;;;;;;;;;;;;;;;23.89;45.65;98804.25;4453846;32;32101;-90
2022/09/10 09:38:23;;;;;;;;;;;;;;;24.70;45.00;98806.47;4468198;32;33726;-87
2022/09/10 09:40:55;;;;;;;;;;;;;;;25.29;43.75;98800.81;4467670;32;35208;-83
2022/09/10 09:43:25;;;;;;;;;;;;;;;24.63;45.07;98798.91;4467573;32;35009;-84
2022/09/10 09:45:53;;;;;;;;;;;;;;;25.02;44.31;98803.94;4470135;32;34107;-84
2022/09/10 09:48:21;;;;;;;;;;;;;;;24.84;43.92;98799.59;4478005;32;33927;-88
2022/09/10 09:50:54;;;;;;;;;;;;;;;25.35;41.13;98790.75;4454760;32;34177;-88
2022/09/10 09:53:24;;;;;;;;;;;;;;;25.47;43.95;98791.88;4458119;32;34182;-83
2022/09/10 09:55:52;;;;;;;;;;;;;;;26.10;42.44;98785.75;4468661;32;33536;-82
2022/09/10 09:58:29;;;;;;;;;;;;;;;26.91;38.93;98781.06;4467903;31;33845;-86
2022/09/10 10:01:02;;;;;;;;;;;;;;;25.64;41.72;98786.50;4478949;32;35175;-82
2022/09/10 10:03:52;;;;;;;;;;;;;;;24.81;42.20;98775.88;4481097;32;34292;-83
2022/09/10 10:06:23;;;;;;;;;;;;;;;25.06;42.80;98776.31;4453622;32;34038;-92
2022/09/10 10:08:55;;;;;;;;;;;;;;;26.50;40.14;98765.75;4452950;32;34029;-84
2022/09/10 10:11:22;;;;;;;;;;;;;;;26.73;39.25;98771.50;4452982;32;34093;-85
2022/09/10 10:13:53;;;;;;;;;;;;;;;25.72;40.15;98768.38;4457441;32;34293;-87
2022/09/10 10:16:25;;;;;;;;;;;;;;;26.68;38.56;98769.97;4469287;32;34179;-82
2022/09/10 10:18:53;;;;;;;;;;;;;;;26.35;40.42;98771.94;4463727;32;33735;-86
2022/09/10 10:21:29;;;;;;;;;;;;;;;26.08;38.42;98761.09;4483099;32;34110;-89
2022/09/10 10:23:57;;;;;;;;;;;;;;;26.23;37.89;98760.22;4453629;32;35003;-84
2022/09/10 10:26:29;;;;;;;;;;;;;;;26.64;38.75;98762.28;4466367;32;33411;-84
2022/09/10 10:28:57;;;;;;;;;;;;;;;26.39;38.63;98754.84;4470953;32;33978;-84
2022/09/10 10:31:40;;;;;;;;;;;;;;;26.49;39.44;98764.03;4471133;32;35258;-92
2022/09/10 10:34:16;;;;;;;;;;;;;;;27.00;36.41;98759.19;4453992;32;34439;-85
2022/09/10 10:36:44;;;;;;;;;;;;;;;27.02;36.23;98752.00;4471169;32;33689;-89
2022/09/10 10:39:18;;;;;;;;;;;;;;;26.41;38.25;98750.31;4471763;32;34325;-86
2022/09/10 10:42:03;;;;;;;;;;;;;;;26.58;37.72;98747.53;4481499;32;33795;-82
2022/09/10 10:44:36;;;;;;;;;;;;;;;26.63;37.64;98748.12;4482369;32;34916;-84
2022/09/10 10:47:19;;;;;;;;;;;;;;;26.79;37.77;98749.88;4468284;32;34176;-83
2022/09/10 10:49:46;;;;;;;;;;;;;;;27.80;34.70;98746.28;4477865;32;34974;-85
2022/09/10 10:52:23;;;;;;;;;;;;;;;27.45;37.00;98752.00;4473129;32;34215;-86
2022/09/10 10:54:55;;;;;;;;;;;;;;;27.07;36.91;98749.91;4455386;32;34142;-83
2022/09/10 10:57:30;;;;;;;;;;;;;;;28.05;32.73;98750.87;4449829;32;34297;-84
2022/09/10 11:00:06;;;;;;;;;;;;;;;27.57;34.65;98742.38;4449804;32;33977;-87
2022/09/10 11:02:39;;;;;;;;;;;;;;;27.45;36.44;98751.16;4449739;32;34439;-83
2022/09/10 11:05:15;;;;;;;;;;;;;;;27.80;34.40;98747.12;4449449;32;34760;-85
2022/09/10 11:07:42;;;;;;;;;;;;;;;27.87;35.82;98747.59;4456541;32;34209;-89
2022/09/10 11:10:11;;;;;;;;;;;;;;;27.94;34.70;98754.22;4465916;32;32863;-83
2022/09/10 11:12:40;;;;;;;;;;;;;;;27.10;34.70;98754.19;4465255;32;34217;-83
2022/09/10 11:15:14;;;;;;;;;;;;;;;27.42;36.59;98754.84;4467452;32;34649;-84
2022/09/10 11:18:04;;;;;;;;;;;;;;;28.22;33.00;98755.06;4468557;32;33957;-83
2022/09/10 11:20:34;;;;;;;;;;;;;;;27.78;34.85;98746.38;4446969;32;34005;-83
2022/09/10 11:23:40;;;;;;;;;;;;;;;27.71;33.68;98741.50;4451900;32;35325;-83
2022/09/10 11:26:25;;;;;;;;;;;;;;;27.92;32.98;98753.50;4403791;32;34347;-84
2022/09/10 11:28:58;;;;;;;;;;;;;;;27.66;33.18;98755.12;4403502;32;34266;-86
2022/09/10 11:31:37;;;;;;;;;;;;;;;27.57;33.61;98747.72;4431684;32;34221;-89
2022/09/10 11:34:05;;;;;;;;;;;;;;;27.09;33.97;98748.00;4451398;32;34832;-86
2022/09/10 11:36:36;;;;;;;;;;;;;;;26.76;35.57;98747.41;4451031;32;33983;-81
2022/09/10 11:39:06;;;;;;;;;;;;;;;26.71;35.19;98752.13;4452286;32;32941;-92
2022/09/10 11:41:33;;;;;;;;;;;;;;;26.41;35.80;98750.31;4450867;32;33945;-88
2022/09/10 11:44:06;;;;;;;;;;;;;;;27.45;34.66;98744.03;4467817;32;34172;-82
2022/09/10 11:46:38;;;;;;;;;;;;;;;27.63;33.61;98737.53;4464573;32;35032;-85
2022/09/10 11:49:06;;;;;;;;;;;;;;;27.44;34.60;98737.00;4454587;32;33639;-82
2022/09/10 11:51:37;;;;;;;;;;;;;;;28.32;33.07;98737.53;4451074;32;34337;-92
2022/09/10 11:54:06;;;;;;;;;;;;;;;28.21;32.39;98730.25;4455398;32;34011;-90
2022/09/10 11:56:45;;;;;;;;;;;;;;;28.26;32.75;98735.25;4465909;32;34068;-91
2022/09/10 11:59:13;;;;;;;;;;;;;;;28.87;31.71;98739.16;4464665;32;34236;-84
2022/09/10 12:02:01;;;;;;;;;;;;;;;27.74;31.62;98742.22;4457060;32;32818;-94
2022/09/10 12:04:49;;;;;;;;;;;;;;;27.98;32.70;98738.91;4455855;32;34433;-95
2022/09/10 12:07:31;;;;;;;;;;;;;;;27.29;33.79;98740.62;4456684;32;34743;-85
2022/09/10 12:10:04;;;;;;;;;;;;;;;28.04;32.96;98742.03;4467037;32;33065;-85
2022/09/10 12:12:50;;;;;;;;;;;;;;;28.28;33.06;98739.53;4466532;32;34077;-82
2022/09/10 12:15:21;;;;;;;;;;;;;;;27.61;32.54;98733.25;4453557;32;35229;-80
2022/09/10 12:17:55;;;;;;;;;;;;;;;27.50;33.38;98733.94;4452832;32;33852;-81
2022/09/10 12:20:25;;;;;;;;;;;;;;;28.17;33.75;98741.22;4464858;32;33719;-89
2022/09/10 12:22:53;;;;;;;;;;;;;;;28.74;32.13;98747.12;4449934;32;34647;-81
2022/09/10 12:25:20;;;;;;;;;;;;;;;28.43;31.65;98745.69;4461299;32;34888;-82
2022/09/10 12:27:48;;;;;;;;;;;;;;;28.75;31.13;98743.53;4463832;32;33620;-81
2022/09/10 12:30:26;;;;;;;;;;;;;;;27.88;32.73;98736.84;4466909;32;33860;-90
2022/09/10 12:32:59;;;;;;;;;;;;;;;28.01;32.32;98730.72;4460912;32;33950;-81
2022/09/10 12:35:30;;;;;;;;;;;;;;;28.65;31.35;98737.09;4458743;32;35101;-85
2022/09/10 12:38:23;;;;;;;;;;;;;;;28.50;30.93;98728.31;4455166;32;33291;-85
2022/09/10 12:40:56;;;;;;;;;;;;;;;28.26;32.04;98732.59;4433180;32;34067;-90
2022/09/10 12:43:40;;;;;;;;;;;;;;;28.62;32.96;98732.81;4461553;32;34815;-92
2022/09/10 12:46:17;;;;;;;;;;;;;;;27.54;32.99;98730.16;4464689;32;35156;-94
2022/09/10 12:48:54;;;;;;;;;;;;;;;28.30;32.07;98737.63;4466296;32;33712;-79
2022/09/10 12:51:46;;;;;;;;;;;;;;;28.60;30.56;98729.41;4467745;32;33413;-82
2022/09/10 12:54:33;;;;;;;;;;;;;;;28.39;31.56;98724.69;4452566;32;33806;-82
2022/09/10 12:57:19;;;;;;;;;;;;;;;27.52;31.37;98716.06;4467254;32;34330;-87
2022/09/10 12:59:57;;;;;;;;;;;;;;;26.88;33.09;98720.91;4474249;32;34732;-84
2022/09/10 13:02:34;;;;;;;;;;;;;;;27.94;32.17;98722.25;4457728;32;33286;-86
2022/09/10 13:05:22;;;;;;;;;;;;;;;28.25;31.76;98723.75;4454466;32;35025;-83
2022/09/10 13:08:01;;;;;;;;;;;;;;;28.07;33.02;98720.50;4481302;32;35106;-95